createdAt,value
2023-02-02T00:00:03.801Z,40.83
2023-02-02T00:02:58.939Z,40.45
2023-02-02T00:05:32.488Z,40.45
2023-02-02T00:08:05.676Z,36.35
2023-02-02T00:10:39.076Z,36.10
2023-02-02T00:13:12.469Z,41.77
2023-02-02T00:15:48.112Z,38.57
2023-02-02T00:18:21.507Z,38.47
2023-02-02T00:20:54.901Z,36.90
2023-02-02T00:23:28.090Z,35.53
2023-02-02T00:26:01.377Z,39.00
2023-02-02T00:28:34.470Z,37.43
2023-02-02T00:31:08.740Z,34.60
2023-02-02T00:33:41.871Z,35.93
2023-02-02T00:36:15.883Z,39.30
2023-02-02T00:38:49.481Z,35.17
2023-02-02T00:41:23.898Z,35.73
2023-02-02T00:44:10.204Z,36.77
2023-02-02T00:46:43.594Z,36.35
2023-02-02T00:49:16.790Z,34.80
2023-02-02T00:51:49.563Z,36.77
2023-02-02T00:54:22.954Z,36.55
2023-02-02T00:56:56.354Z,37.50
2023-02-02T00:59:29.536Z,36.50
2023-02-02T01:02:02.769Z,35.10
2023-02-02T01:04:35.831Z,34.00
2023-02-02T01:07:08.496Z,36.55
2023-02-02T01:12:12.204Z,30.10
2023-02-02T01:14:45.230Z,30.25
2023-02-02T01:17:17.971Z,27.30
2023-02-02T01:19:51.160Z,25.53
2023-02-02T01:22:23.951Z,24.50
2023-02-02T01:24:57.332Z,23.43
2023-02-02T01:27:30.739Z,22.55
2023-02-02T01:30:05.766Z,21.85
2023-02-02T01:32:38.746Z,23.57
2023-02-02T01:35:12.764Z,21.00
2023-02-02T01:37:45.952Z,20.30
2023-02-02T01:40:19.340Z,19.60
2023-02-02T01:42:52.327Z,20.20
2023-02-02T01:45:28.324Z,19.30
2023-02-02T01:48:01.980Z,16.75
2023-02-02T01:50:35.481Z,16.85
2023-02-02T01:53:09.378Z,17.95
2023-02-02T01:55:43.182Z,20.25
2023-02-02T01:58:17.399Z,15.90
2023-02-02T02:00:51.093Z,17.60
2023-02-02T02:03:26.698Z,15.65
2023-02-02T02:06:02.363Z,17.65
2023-02-02T02:08:37.592Z,13.30
2023-02-02T02:11:11.126Z,14.75
2023-02-02T02:14:01.312Z,14.65
2023-02-02T02:16:42.546Z,17.97
2023-02-02T02:19:27.761Z,16.45
2023-02-02T02:22:21.225Z,16.47
2023-02-02T02:25:20.630Z,14.15
2023-02-02T02:28:16.756Z,15.25
2023-02-02T02:31:05.999Z,15.20
2023-02-02T02:33:44.645Z,14.30
2023-02-02T02:36:19.828Z,14.45
2023-02-02T02:38:56.069Z,14.70
2023-02-02T02:41:31.439Z,14.63
2023-02-02T02:44:06.619Z,15.43
2023-02-02T02:46:40.234Z,14.85
2023-02-02T02:49:14.520Z,17.80
2023-02-02T02:51:48.918Z,15.65
2023-02-02T02:54:34.080Z,16.93
2023-02-02T02:57:15.097Z,21.25
2023-02-02T02:59:53.343Z,15.73
2023-02-02T03:02:32.901Z,15.80
2023-02-02T03:05:11.245Z,15.10
2023-02-02T03:07:45.462Z,16.07
2023-02-02T03:10:20.581Z,14.45
2023-02-02T03:12:53.682Z,15.00
2023-02-02T03:15:27.059Z,13.40
2023-02-02T03:18:00.072Z,15.30
2023-02-02T03:20:33.257Z,16.25
2023-02-02T03:23:06.447Z,14.40
2023-02-02T03:25:39.637Z,13.65
2023-02-02T03:28:12.816Z,12.85
2023-02-02T03:30:46.517Z,13.63
2023-02-02T03:33:20.231Z,14.93
2023-02-02T03:35:52.979Z,14.40
2023-02-02T03:38:26.392Z,14.25
2023-02-02T03:40:59.599Z,12.55
2023-02-02T03:43:32.580Z,13.15
2023-02-02T03:46:06.839Z,15.33
2023-02-02T03:48:40.380Z,13.35
2023-02-02T03:51:14.186Z,15.33
2023-02-02T03:53:48.046Z,12.25
2023-02-02T03:56:21.179Z,15.07
2023-02-02T03:58:54.369Z,11.73
2023-02-02T04:01:29.996Z,13.27
2023-02-02T04:04:03.208Z,15.80
2023-02-02T04:06:36.048Z,13.30
2023-02-02T04:09:09.584Z,12.77
2023-02-02T04:11:42.784Z,11.23
2023-02-02T04:14:16.239Z,13.70
2023-02-02T04:16:49.152Z,13.77
2023-02-02T04:19:22.346Z,13.67
2023-02-02T04:21:54.440Z,14.30
2023-02-02T04:24:27.907Z,12.20
2023-02-02T04:27:01.102Z,13.65
2023-02-02T04:29:34.286Z,11.85
2023-02-02T04:32:07.472Z,13.45
2023-02-02T04:34:40.666Z,14.40
2023-02-02T04:37:13.520Z,15.47
2023-02-02T04:39:47.041Z,14.47
2023-02-02T04:42:20.235Z,16.07
2023-02-02T04:44:53.421Z,18.03
2023-02-02T04:47:26.608Z,18.63
2023-02-02T04:49:59.816Z,13.77
2023-02-02T04:52:32.171Z,18.05
2023-02-02T04:57:37.131Z,44.67
2023-02-02T05:00:12.711Z,40.23
2023-02-02T05:02:46.342Z,29.25
2023-02-02T05:05:20.779Z,25.50
2023-02-02T05:07:53.764Z,21.10
2023-02-02T05:10:28.021Z,19.15
2023-02-02T05:13:03.783Z,19.30
2023-02-02T05:15:37.633Z,19.05
2023-02-02T05:18:11.437Z,21.53
2023-02-02T05:20:45.956Z,21.80
2023-02-02T05:23:19.250Z,21.10
2023-02-02T05:25:55.509Z,18.55
2023-02-02T05:28:29.722Z,18.43
2023-02-02T05:31:06.866Z,22.15
2023-02-02T05:33:40.608Z,21.43
2023-02-02T05:36:14.006Z,22.13
2023-02-02T05:38:47.200Z,18.93
2023-02-02T05:41:21.213Z,27.85
2023-02-02T05:43:53.679Z,25.57
2023-02-02T05:46:26.781Z,34.57
2023-02-02T05:49:00.371Z,52.67
2023-02-02T05:51:35.669Z,54.33
2023-02-02T05:54:08.989Z,51.00
2023-02-02T05:56:42.180Z,39.80
2023-02-02T05:59:17.825Z,33.30
2023-02-02T06:01:51.429Z,28.27
2023-02-02T06:04:24.408Z,38.20
2023-02-02T06:06:57.243Z,29.63
2023-02-02T06:09:31.813Z,28.33
2023-02-02T06:12:05.618Z,25.03
2023-02-02T06:14:39.012Z,25.40
2023-02-02T06:17:12.202Z,22.27
2023-02-02T06:19:45.186Z,22.67
2023-02-02T06:22:18.176Z,24.60
2023-02-02T06:24:50.947Z,24.43
2023-02-02T06:27:24.344Z,25.00
2023-02-02T06:29:57.532Z,24.60
2023-02-02T06:32:32.066Z,25.57
2023-02-02T06:35:05.758Z,22.60
2023-02-02T06:37:39.394Z,22.70
2023-02-02T06:40:14.776Z,25.17
2023-02-02T06:42:47.575Z,28.43
2023-02-02T06:45:20.765Z,29.80
2023-02-02T06:47:54.369Z,34.47
2023-02-02T06:50:27.146Z,39.17
2023-02-02T06:52:59.923Z,34.37
2023-02-02T06:55:33.117Z,29.67
2023-02-02T06:58:06.918Z,25.23
2023-02-02T07:00:40.927Z,26.15
2023-02-02T07:03:14.007Z,25.63
2023-02-02T07:05:47.305Z,25.07
2023-02-02T07:08:20.495Z,26.15
2023-02-02T07:11:14.156Z,25.75
2023-02-02T07:13:46.535Z,24.95
2023-02-02T07:16:20.192Z,22.55
2023-02-02T07:18:53.732Z,23.85
2023-02-02T07:21:28.765Z,46.10
2023-02-02T07:24:01.749Z,52.40
2023-02-02T07:26:37.516Z,34.75
2023-02-02T07:29:11.202Z,22.35
2023-02-02T07:31:44.241Z,19.00
2023-02-02T07:34:17.205Z,18.77
2023-02-02T07:36:50.421Z,20.33
2023-02-02T07:39:23.757Z,19.85
2023-02-02T07:41:57.150Z,22.25
2023-02-02T07:44:35.253Z,23.50
2023-02-02T07:47:08.650Z,21.00
2023-02-02T07:49:41.836Z,19.70
2023-02-02T07:52:14.067Z,17.70
2023-02-02T07:54:47.397Z,18.37
2023-02-02T07:57:20.586Z,22.60
2023-02-02T07:59:55.017Z,20.20
2023-02-02T08:02:27.796Z,19.60
2023-02-02T08:05:00.971Z,18.35
2023-02-02T08:07:35.447Z,18.50
2023-02-02T08:10:09.059Z,16.93
2023-02-02T08:12:41.975Z,18.50
2023-02-02T08:15:15.983Z,22.95
2023-02-02T08:17:50.255Z,23.37
2023-02-02T08:20:23.186Z,20.03
2023-02-02T08:22:55.556Z,18.80
2023-02-02T08:28:01.728Z,18.90
2023-02-02T08:30:34.531Z,20.50
2023-02-02T08:33:07.698Z,18.80
2023-02-02T08:35:43.957Z,14.25
2023-02-02T08:38:17.369Z,14.87
2023-02-02T08:40:51.568Z,14.60
2023-02-02T08:43:24.756Z,18.10
2023-02-02T08:46:02.313Z,13.55
2023-02-02T08:48:37.897Z,15.25
2023-02-02T08:51:12.311Z,14.80
2023-02-02T08:53:44.977Z,19.77
2023-02-02T08:56:18.692Z,17.45
2023-02-02T08:58:52.701Z,18.80
2023-02-02T09:01:26.419Z,18.00
2023-02-02T09:04:00.922Z,20.00
2023-02-02T09:06:34.331Z,20.85
2023-02-02T09:09:08.533Z,21.20
2023-02-02T09:11:42.559Z,16.00
2023-02-02T09:14:15.565Z,14.90
2023-02-02T09:16:48.525Z,16.00
2023-02-02T09:19:21.492Z,19.23
2023-02-02T09:21:54.885Z,22.60
2023-02-02T09:24:28.081Z,20.10
2023-02-02T09:27:02.112Z,20.00
2023-02-02T09:29:35.284Z,16.65
2023-02-02T09:32:08.301Z,14.50
2023-02-02T09:34:41.449Z,14.67
2023-02-02T09:37:13.899Z,12.95
2023-02-02T09:39:47.009Z,14.38
2023-02-02T09:42:29.485Z,15.30
2023-02-02T09:45:04.748Z,17.52
2023-02-02T09:47:45.190Z,13.77
2023-02-02T09:50:20.151Z,12.85
2023-02-02T09:52:56.527Z,12.55
2023-02-02T09:55:32.036Z,11.20
2023-02-02T09:58:07.150Z,10.10
2023-02-02T10:00:44.150Z,10.60
2023-02-02T10:03:20.709Z,11.10
2023-02-02T10:05:56.177Z,10.60
2023-02-02T10:08:35.424Z,11.10
2023-02-02T10:11:15.710Z,9.55
2023-02-02T10:13:51.981Z,10.93
2023-02-02T10:16:25.622Z,11.70
2023-02-02T10:19:01.262Z,10.53
2023-02-02T10:21:40.479Z,11.60
2023-02-02T10:24:16.429Z,11.23
2023-02-02T10:26:50.092Z,10.65
2023-02-02T10:29:34.686Z,9.55
2023-02-02T10:32:22.803Z,10.10
2023-02-02T10:35:13.190Z,11.88
2023-02-02T10:37:51.006Z,11.65
2023-02-02T10:40:31.409Z,11.57
2023-02-02T10:43:34.088Z,10.53
2023-02-02T10:48:39.235Z,12.67
2023-02-02T10:51:17.266Z,14.05
2023-02-02T10:53:53.192Z,14.80
2023-02-02T10:56:28.023Z,13.65
2023-02-02T10:59:03.239Z,12.15
2023-02-02T11:01:36.682Z,11.80
2023-02-02T11:04:28.069Z,11.60
2023-02-02T11:07:01.688Z,11.23
2023-02-02T11:09:38.614Z,12.80
2023-02-02T11:12:19.316Z,11.65
2023-02-02T11:14:55.935Z,12.60
2023-02-02T11:17:29.791Z,12.55
2023-02-02T11:20:02.771Z,12.75
2023-02-02T11:22:36.375Z,14.90
2023-02-02T11:25:27.994Z,11.33
2023-02-02T11:28:01.604Z,10.65
2023-02-02T11:30:35.619Z,13.70
2023-02-02T11:33:22.307Z,11.77
2023-02-02T11:35:56.370Z,12.55
2023-02-02T11:38:29.158Z,12.57
2023-02-02T11:41:04.042Z,15.90
2023-02-02T11:43:41.647Z,19.73
2023-02-02T11:46:21.027Z,18.50
2023-02-02T11:48:57.975Z,16.70
2023-02-02T11:51:32.245Z,23.35
2023-02-02T11:54:07.491Z,13.40
2023-02-02T11:56:40.966Z,13.70
2023-02-02T11:59:28.892Z,13.50
2023-02-02T12:02:21.539Z,10.30
2023-02-02T12:04:57.625Z,13.03
2023-02-02T12:07:30.914Z,12.57
2023-02-02T12:10:08.627Z,11.70
2023-02-02T12:12:45.631Z,14.00
2023-02-02T12:15:23.958Z,11.75
2023-02-02T12:18:03.489Z,12.95
2023-02-02T12:20:42.261Z,14.55
2023-02-02T12:23:22.867Z,12.75
2023-02-02T12:26:02.553Z,13.10
2023-02-02T12:28:44.744Z,11.10
2023-02-02T12:31:22.057Z,12.80
2023-02-02T12:33:56.057Z,13.55
2023-02-02T12:36:33.364Z,14.05
2023-02-02T12:39:21.891Z,12.20
2023-02-02T12:42:18.839Z,13.25
2023-02-02T12:45:05.762Z,13.07
2023-02-02T12:47:42.221Z,13.85
2023-02-02T12:50:24.147Z,12.50
2023-02-02T12:53:04.750Z,16.55
2023-02-02T12:55:42.673Z,13.90
2023-02-02T12:58:22.213Z,12.45
2023-02-02T13:01:08.760Z,12.35
2023-02-02T13:03:48.457Z,10.70
2023-02-02T13:06:27.468Z,12.05
2023-02-02T13:09:03.387Z,13.80
2023-02-02T13:11:41.934Z,13.25
2023-02-02T13:14:17.225Z,10.10
2023-02-02T13:16:52.470Z,10.30
2023-02-02T13:19:30.264Z,9.75
2023-02-02T13:22:04.603Z,13.70
2023-02-02T13:24:38.760Z,12.55
2023-02-02T13:27:13.073Z,12.70
2023-02-02T13:29:48.699Z,15.35
2023-02-02T13:32:25.139Z,10.95
2023-02-02T13:35:02.516Z,10.85
2023-02-02T13:37:38.505Z,11.90
2023-02-02T13:40:20.626Z,10.33
2023-02-02T13:42:56.059Z,10.35
2023-02-02T13:45:36.812Z,9.25
2023-02-02T13:48:14.410Z,8.30
2023-02-02T13:50:53.454Z,11.77
2023-02-02T13:53:37.498Z,10.40
2023-02-02T13:56:15.957Z,8.30
2023-02-02T13:59:04.764Z,7.80
2023-02-02T14:01:40.525Z,8.40
2023-02-02T14:04:22.772Z,6.60
2023-02-02T14:06:59.185Z,7.30
2023-02-02T14:09:34.397Z,8.70
2023-02-02T14:12:09.924Z,7.15
2023-02-02T14:14:47.868Z,8.30
2023-02-02T14:17:34.168Z,8.63
2023-02-02T14:20:10.425Z,8.85
2023-02-02T14:22:45.267Z,7.40
2023-02-02T14:25:40.575Z,8.93
2023-02-02T14:28:34.646Z,7.93
2023-02-02T14:31:33.381Z,7.75
2023-02-02T14:34:27.479Z,7.35
2023-02-02T14:37:13.806Z,11.45
2023-02-02T14:39:52.953Z,7.93
2023-02-02T14:42:57.457Z,9.50
2023-02-02T14:45:33.119Z,10.30
2023-02-02T14:48:11.422Z,10.77
2023-02-02T14:50:46.705Z,10.10
2023-02-02T14:53:22.380Z,9.70
2023-02-02T14:55:57.535Z,8.50
2023-02-02T14:58:34.280Z,8.25
2023-02-02T15:01:10.367Z,8.35
2023-02-02T15:03:50.912Z,8.35
2023-02-02T15:06:29.975Z,9.50
2023-02-02T15:09:19.547Z,9.50
2023-02-02T15:12:09.309Z,9.55
2023-02-02T15:14:44.203Z,15.45
2023-02-02T15:17:22.649Z,16.93
2023-02-02T15:19:57.083Z,14.90
2023-02-02T15:22:32.049Z,14.77
2023-02-02T15:25:07.993Z,10.20
2023-02-02T15:27:55.185Z,11.45
2023-02-02T15:30:33.722Z,12.80
2023-02-02T15:33:09.316Z,13.05
2023-02-02T15:35:42.636Z,17.90
2023-02-02T15:38:17.046Z,24.43
2023-02-02T15:40:50.643Z,28.85
2023-02-02T15:43:24.858Z,23.60
2023-02-02T15:46:02.503Z,17.27
2023-02-02T15:48:36.765Z,17.55
2023-02-02T15:51:16.324Z,17.37
2023-02-02T15:53:51.893Z,14.90
2023-02-02T15:56:30.167Z,15.50
2023-02-02T15:59:03.040Z,16.20
2023-02-02T16:01:45.726Z,16.50
2023-02-02T16:04:20.613Z,15.25
2023-02-02T16:06:54.081Z,12.10
2023-02-02T16:09:28.121Z,12.13
2023-02-02T16:12:01.910Z,11.60
2023-02-02T16:14:36.418Z,11.47
2023-02-02T16:17:21.172Z,12.60
2023-02-02T16:19:58.628Z,11.35
2023-02-02T16:22:32.656Z,13.15
2023-02-02T16:25:08.728Z,19.80
2023-02-02T16:27:42.738Z,15.45
2023-02-02T16:30:24.940Z,12.00
2023-02-02T16:32:58.349Z,14.95
2023-02-02T16:35:35.207Z,13.20
2023-02-02T16:38:17.360Z,14.20
2023-02-02T16:40:50.400Z,15.68
2023-02-02T16:43:29.725Z,14.25
2023-02-02T16:46:07.083Z,14.50
2023-02-02T16:48:40.835Z,13.70
2023-02-02T16:51:25.268Z,16.07
2023-02-02T16:54:00.519Z,17.50
2023-02-02T16:56:34.994Z,16.77
2023-02-02T16:59:09.771Z,18.40
2023-02-02T17:01:44.218Z,18.55
2023-02-02T17:04:20.448Z,15.40
2023-02-02T17:06:53.686Z,13.37
2023-02-02T17:09:34.809Z,14.90
2023-02-02T17:12:33.693Z,18.27
2023-02-02T17:15:29.327Z,22.93
2023-02-02T17:18:02.703Z,21.95
2023-02-02T17:20:37.329Z,21.80
2023-02-02T17:23:11.143Z,18.73
2023-02-02T17:25:44.954Z,17.70
2023-02-02T17:28:19.556Z,18.43
2023-02-02T17:30:55.474Z,19.27
2023-02-02T17:33:29.415Z,20.80
2023-02-02T17:36:02.202Z,22.37
2023-02-02T17:38:34.976Z,14.90
2023-02-02T17:41:07.861Z,16.90
2023-02-02T17:43:43.019Z,17.00
2023-02-02T17:46:15.662Z,15.00
2023-02-02T17:48:48.981Z,17.73
2023-02-02T17:51:22.005Z,14.75
2023-02-02T17:53:57.807Z,16.43
2023-02-02T17:56:30.784Z,17.35
2023-02-02T17:59:04.185Z,21.25
2023-02-02T18:01:39.410Z,19.75
2023-02-02T18:04:14.245Z,21.30
2023-02-02T18:06:47.023Z,19.45
2023-02-02T18:09:20.841Z,19.20
2023-02-02T18:11:54.221Z,18.37
2023-02-02T18:14:27.427Z,20.90
2023-02-02T18:17:00.620Z,17.33
2023-02-02T18:19:34.199Z,17.45
2023-02-02T18:22:07.864Z,16.47
2023-02-02T18:24:41.001Z,18.57
2023-02-02T18:27:14.181Z,19.00
2023-02-02T18:29:48.602Z,20.70
2023-02-02T18:32:21.440Z,19.17
2023-02-02T18:34:56.245Z,15.67
2023-02-02T18:37:29.262Z,17.30
2023-02-02T18:40:02.586Z,17.00
2023-02-02T18:42:35.791Z,17.60
2023-02-02T18:45:10.403Z,18.43
2023-02-02T18:47:43.207Z,17.15
2023-02-02T18:50:16.167Z,17.50
2023-02-02T18:52:49.122Z,16.23
2023-02-02T18:55:23.300Z,15.93
2023-02-02T18:57:56.561Z,15.10
2023-02-02T19:00:29.946Z,13.35
2023-02-02T19:03:02.724Z,15.15
2023-02-02T19:05:53.328Z,19.05
2023-02-02T19:08:26.306Z,17.95
2023-02-02T19:11:01.830Z,18.65
2023-02-02T19:13:35.349Z,16.85
2023-02-02T19:16:14.944Z,16.83
2023-02-02T19:18:48.282Z,21.40
2023-02-02T19:21:21.471Z,19.03
2023-02-02T19:23:54.658Z,17.15
2023-02-02T19:26:29.909Z,15.90
2023-02-02T19:29:04.477Z,14.05
2023-02-02T19:31:38.171Z,17.17
2023-02-02T19:34:13.932Z,16.43
2023-02-02T19:36:49.419Z,16.97
2023-02-02T19:39:23.427Z,13.50
2023-02-02T19:41:59.535Z,14.20
2023-02-02T19:44:34.314Z,14.55
2023-02-02T19:47:15.893Z,15.70
2023-02-02T19:49:49.500Z,15.23
2023-02-02T19:52:24.939Z,15.77
2023-02-02T19:54:59.356Z,15.30
2023-02-02T19:57:36.821Z,15.45
2023-02-02T20:00:17.367Z,15.20
2023-02-02T20:03:07.662Z,15.37
2023-02-02T20:05:41.872Z,16.97
2023-02-02T20:08:20.940Z,15.70
2023-02-02T20:10:55.973Z,15.50
2023-02-02T20:13:43.901Z,15.57
2023-02-02T20:16:19.858Z,19.10
2023-02-02T20:18:54.596Z,19.45
2023-02-02T20:21:33.097Z,19.50
2023-02-02T20:24:15.503Z,18.55
2023-02-02T20:26:48.541Z,17.77
2023-02-02T20:29:23.797Z,15.95
2023-02-02T20:31:58.107Z,15.13
2023-02-02T20:34:33.377Z,12.20
2023-02-02T20:37:14.350Z,12.60
2023-02-02T20:39:50.231Z,11.10
2023-02-02T20:42:23.803Z,12.00
2023-02-02T20:44:59.246Z,10.13
2023-02-02T20:47:33.465Z,12.25
2023-02-02T20:50:08.261Z,14.93
2023-02-02T20:52:43.357Z,11.55
2023-02-02T20:55:18.909Z,12.90
2023-02-02T20:57:52.793Z,11.50
2023-02-02T21:00:27.908Z,13.17
2023-02-02T21:03:01.204Z,15.73
2023-02-02T21:05:34.185Z,12.80
2023-02-02T21:08:07.179Z,13.00
2023-02-02T21:10:40.153Z,11.85
2023-02-02T21:13:13.343Z,10.30
2023-02-02T21:15:46.531Z,12.47
2023-02-02T21:18:19.511Z,11.20
2023-02-02T21:20:52.945Z,12.65
2023-02-02T21:23:25.897Z,11.80
2023-02-02T21:25:59.287Z,11.45
2023-02-02T21:28:32.477Z,12.80
2023-02-02T21:31:07.828Z,11.40
2023-02-02T21:33:42.444Z,13.30
2023-02-02T21:36:26.504Z,11.47
2023-02-02T21:39:03.325Z,13.07
2023-02-02T21:41:37.471Z,13.05
2023-02-02T21:44:13.828Z,13.00
2023-02-02T21:46:47.139Z,13.40
2023-02-02T21:49:22.265Z,11.90
2023-02-02T21:51:57.157Z,15.45
2023-02-02T21:54:31.205Z,14.95
2023-02-02T21:57:06.430Z,13.75
2023-02-02T21:59:39.441Z,11.33
2023-02-02T22:02:32.911Z,14.85
2023-02-02T22:05:12.400Z,11.70
2023-02-02T22:07:46.404Z,12.93
2023-02-02T22:10:31.505Z,13.45
2023-02-02T22:13:12.888Z,12.80
2023-02-02T22:15:47.756Z,14.15
2023-02-02T22:18:23.059Z,13.75
2023-02-02T22:20:56.872Z,14.93
2023-02-02T22:23:30.147Z,14.60
2023-02-02T22:26:03.342Z,13.60
2023-02-02T22:28:40.021Z,14.10
2023-02-02T22:31:13.076Z,13.65
2023-02-02T22:33:46.184Z,12.33
2023-02-02T22:36:19.377Z,15.65
2023-02-02T22:38:51.947Z,16.00
2023-02-02T22:41:24.994Z,17.30
2023-02-02T22:43:57.713Z,15.10
2023-02-02T22:46:30.376Z,15.30
2023-02-02T22:49:03.890Z,15.25
2023-02-02T22:51:37.079Z,12.93
2023-02-02T22:54:11.093Z,14.40
2023-02-02T22:56:44.478Z,14.63
2023-02-02T22:59:17.669Z,15.80
2023-02-02T23:01:50.861Z,14.93
2023-02-02T23:04:24.251Z,15.37
2023-02-02T23:06:57.645Z,16.07
2023-02-02T23:09:31.043Z,15.40
2023-02-02T23:12:04.229Z,17.03
2023-02-02T23:14:37.839Z,15.95
2023-02-02T23:17:11.019Z,15.55
2023-02-02T23:19:44.410Z,16.73
2023-02-02T23:22:17.815Z,16.80
2023-02-02T23:24:51.201Z,16.25
2023-02-02T23:27:24.401Z,16.10
2023-02-02T23:29:57.578Z,14.23
2023-02-02T23:32:30.770Z,13.17
2023-02-02T23:35:03.957Z,17.13
2023-02-02T23:37:37.211Z,14.35
2023-02-02T23:40:12.255Z,12.87
2023-02-02T23:42:45.587Z,15.40
2023-02-02T23:45:18.923Z,16.00
2023-02-02T23:47:52.160Z,15.87
2023-02-02T23:50:25.606Z,13.73
2023-02-02T23:52:59.357Z,12.83
2023-02-02T23:55:32.548Z,14.35
2023-02-02T23:58:06.146Z,15.17
